createdAt,value
2019-05-10T00:00:04.275Z,11.30
2019-05-10T00:01:04.307Z,11.30
2019-05-10T00:02:04.758Z,11.30
2019-05-10T00:03:04.256Z,11.30
2019-05-10T00:04:04.282Z,11.30
2019-05-10T00:05:04.556Z,11.30
2019-05-10T00:06:04.594Z,11.30
2019-05-10T00:07:04.594Z,11.20
2019-05-10T00:08:04.799Z,11.20
2019-05-10T00:09:04.332Z,11.20
2019-05-10T00:10:04.950Z,11.20
2019-05-10T00:11:05.043Z,11.20
2019-05-10T00:12:05.035Z,11.20
2019-05-10T00:13:04.301Z,11.20
2019-05-10T00:14:05.017Z,11.20
2019-05-10T00:15:04.861Z,11.20
2019-05-10T00:16:04.343Z,11.20
2019-05-10T00:17:04.417Z,11.10
2019-05-10T00:18:04.508Z,11.10
2019-05-10T00:19:05.080Z,11.10
2019-05-10T00:20:09.547Z,11.10
2019-05-10T00:21:04.895Z,11.10
2019-05-10T00:22:04.396Z,11.10
2019-05-10T00:23:04.877Z,11.00
2019-05-10T00:24:04.972Z,11.00
2019-05-10T00:25:05.259Z,11.00
2019-05-10T00:26:04.277Z,10.90
2019-05-10T00:27:04.607Z,10.90
2019-05-10T00:28:05.090Z,10.90
2019-05-10T00:29:05.115Z,10.90
2019-05-10T00:30:05.079Z,10.90
2019-05-10T00:31:04.892Z,10.80
2019-05-10T00:32:04.872Z,10.80
2019-05-10T00:33:04.929Z,10.80
2019-05-10T00:34:04.509Z,10.70
2019-05-10T00:35:04.765Z,10.70
2019-05-10T00:36:04.995Z,10.70
2019-05-10T00:37:05.156Z,10.70
2019-05-10T00:38:04.419Z,10.60
2019-05-10T00:39:04.512Z,10.60
2019-05-10T00:40:05.139Z,10.60
2019-05-10T00:41:04.729Z,10.60
2019-05-10T00:42:04.284Z,10.60
2019-05-10T00:43:04.388Z,10.60
2019-05-10T00:44:04.937Z,10.50
2019-05-10T00:45:04.365Z,10.50
2019-05-10T00:46:05.019Z,10.50
2019-05-10T00:47:04.644Z,10.50
2019-05-10T00:48:04.652Z,10.50
2019-05-10T00:49:04.853Z,10.50
2019-05-10T00:50:04.898Z,10.50
2019-05-10T00:51:04.841Z,10.50
2019-05-10T00:52:04.458Z,10.40
2019-05-10T00:53:05.076Z,10.40
2019-05-10T00:54:09.632Z,10.40
2019-05-10T00:55:17.670Z,10.40
2019-05-10T00:56:04.903Z,10.40
2019-05-10T00:57:04.426Z,10.40
2019-05-10T00:58:04.978Z,10.40
2019-05-10T00:59:05.151Z,10.40
2019-05-10T01:00:04.651Z,10.40
2019-05-10T01:01:04.774Z,10.40
2019-05-10T01:02:05.193Z,10.40
2019-05-10T01:03:04.623Z,10.40
2019-05-10T01:04:04.307Z,10.40
2019-05-10T01:05:04.748Z,10.40
2019-05-10T01:06:04.476Z,10.40
2019-05-10T01:07:04.939Z,10.40
2019-05-10T01:08:04.947Z,10.40
2019-05-10T01:09:05.063Z,10.40
2019-05-10T01:10:04.436Z,10.40
2019-05-10T01:11:04.854Z,10.40
2019-05-10T01:12:05.099Z,10.40
2019-05-10T01:13:04.215Z,10.40
2019-05-10T01:14:09.767Z,10.40
2019-05-10T01:15:05.183Z,10.40
2019-05-10T01:16:04.520Z,10.40
2019-05-10T01:17:04.647Z,10.40
2019-05-10T01:18:04.939Z,10.40
2019-05-10T01:19:05.184Z,10.40
2019-05-10T01:20:04.582Z,10.40
2019-05-10T01:21:05.069Z,10.40
2019-05-10T01:22:04.517Z,10.40
2019-05-10T01:23:04.524Z,10.40
2019-05-10T01:24:04.802Z,10.40
2019-05-10T01:25:04.477Z,10.40
2019-05-10T01:26:05.179Z,10.40
2019-05-10T01:27:04.216Z,10.40
2019-05-10T01:28:04.384Z,10.40
2019-05-10T01:29:04.435Z,10.40
2019-05-10T01:30:04.905Z,10.40
2019-05-10T01:31:04.283Z,10.40
2019-05-10T01:32:04.389Z,10.40
2019-05-10T01:33:05.157Z,10.40
2019-05-10T01:34:05.199Z,10.40
2019-05-10T01:35:05.177Z,10.40
2019-05-10T01:36:04.523Z,10.40
2019-05-10T01:37:04.589Z,10.40
2019-05-10T01:38:04.879Z,10.40
2019-05-10T01:39:04.288Z,10.30
2019-05-10T01:40:04.524Z,10.30
2019-05-10T01:41:05.337Z,10.30
2019-05-10T01:42:05.100Z,10.30
2019-05-10T01:43:04.521Z,10.30
2019-05-10T01:44:09.507Z,10.20
2019-05-10T01:45:04.856Z,10.20
2019-05-10T01:46:04.892Z,10.20
2019-05-10T01:47:04.301Z,10.20
2019-05-10T01:48:04.371Z,10.20
2019-05-10T01:49:04.897Z,10.20
2019-05-10T01:50:05.118Z,10.10
2019-05-10T01:51:04.611Z,10.10
2019-05-10T01:52:04.651Z,10.10
2019-05-10T01:53:04.634Z,10.10
2019-05-10T01:54:04.900Z,10.10
2019-05-10T01:55:04.900Z,10.10
2019-05-10T01:56:05.219Z,10.00
2019-05-10T01:57:05.209Z,10.00
2019-05-10T01:58:04.662Z,10.00
2019-05-10T01:59:05.069Z,9.90
2019-05-10T02:00:04.441Z,9.90
2019-05-10T02:01:05.038Z,9.90
2019-05-10T02:02:05.095Z,9.90
2019-05-10T02:03:05.145Z,9.80
2019-05-10T02:04:09.744Z,9.80
2019-05-10T02:05:05.089Z,9.80
2019-05-10T02:06:04.618Z,9.80
2019-05-10T02:07:05.284Z,9.80
2019-05-10T02:08:04.319Z,9.80
2019-05-10T02:09:04.225Z,9.70
2019-05-10T02:10:04.798Z,9.70
2019-05-10T02:11:04.772Z,9.70
2019-05-10T02:12:04.390Z,9.70
2019-05-10T02:13:04.702Z,9.70
2019-05-10T02:14:05.040Z,9.60
2019-05-10T02:15:04.564Z,9.60
2019-05-10T02:16:04.606Z,9.60
2019-05-10T02:17:04.729Z,9.60
2019-05-10T02:18:04.312Z,9.60
2019-05-10T02:19:05.048Z,9.60
2019-05-10T02:20:04.467Z,9.60
2019-05-10T02:21:04.451Z,9.60
2019-05-10T02:22:04.681Z,9.60
2019-05-10T02:23:04.824Z,9.60
2019-05-10T02:24:04.905Z,9.50
2019-05-10T02:25:04.893Z,9.50
2019-05-10T02:26:09.277Z,9.50
2019-05-10T02:27:04.623Z,9.50
2019-05-10T02:28:05.060Z,9.50
2019-05-10T02:29:04.541Z,9.50
2019-05-10T02:30:04.695Z,9.50
2019-05-10T02:31:04.368Z,9.40
2019-05-10T02:32:04.386Z,9.40
2019-05-10T02:33:04.981Z,9.40
2019-05-10T02:34:05.073Z,9.40
2019-05-10T02:35:05.246Z,9.40
2019-05-10T02:36:04.389Z,9.40
2019-05-10T02:37:04.830Z,9.40
2019-05-10T02:38:04.565Z,9.40
2019-05-10T02:39:04.618Z,9.40
2019-05-10T02:40:04.863Z,9.40
2019-05-10T02:41:04.351Z,9.40
2019-05-10T02:42:04.755Z,9.40
2019-05-10T02:43:04.863Z,9.40
2019-05-10T02:44:05.112Z,9.40
2019-05-10T02:45:05.145Z,9.40
2019-05-10T02:46:04.724Z,9.40
2019-05-10T02:47:05.362Z,9.30
2019-05-10T02:48:04.253Z,9.40
2019-05-10T02:49:04.409Z,9.40
2019-05-10T02:50:04.873Z,9.40
2019-05-10T02:51:04.575Z,9.40
2019-05-10T02:52:04.207Z,9.30
2019-05-10T02:53:04.597Z,9.40
2019-05-10T02:54:04.813Z,9.40
2019-05-10T02:55:04.476Z,9.40
2019-05-10T02:56:04.755Z,9.40
2019-05-10T02:57:04.803Z,9.40
2019-05-10T02:58:04.956Z,9.40
2019-05-10T02:59:04.397Z,9.40
2019-05-10T03:00:04.711Z,9.40
2019-05-10T03:01:04.772Z,9.40
2019-05-10T03:02:05.073Z,9.40
2019-05-10T03:03:04.669Z,9.40
2019-05-10T03:04:04.435Z,9.40
2019-05-10T03:05:04.822Z,9.50
2019-05-10T03:06:04.859Z,9.50
2019-05-10T03:07:05.405Z,9.50
2019-05-10T03:08:04.315Z,9.50
2019-05-10T03:09:04.586Z,9.50
2019-05-10T03:10:04.567Z,9.50
2019-05-10T03:11:04.809Z,9.50
2019-05-10T03:12:04.942Z,9.50
2019-05-10T03:13:04.333Z,9.50
2019-05-10T03:14:04.682Z,9.60
2019-05-10T03:15:04.874Z,9.60
2019-05-10T03:16:04.237Z,9.60
2019-05-10T03:17:04.288Z,9.60
2019-05-10T03:18:04.388Z,9.60
2019-05-10T03:19:04.723Z,9.60
2019-05-10T03:20:04.962Z,9.60
2019-05-10T03:21:04.965Z,9.60
2019-05-10T03:22:04.679Z,9.60
2019-05-10T03:23:04.846Z,9.60
2019-05-10T03:24:04.933Z,9.70
2019-05-10T03:25:04.922Z,9.60
2019-05-10T03:26:04.378Z,9.70
2019-05-10T03:27:04.937Z,9.70
2019-05-10T03:28:04.491Z,9.70
2019-05-10T03:29:04.974Z,9.70
2019-05-10T03:30:05.079Z,9.70
2019-05-10T03:31:05.085Z,9.70
2019-05-10T03:32:04.946Z,9.70
2019-05-10T03:33:05.209Z,9.70
2019-05-10T03:34:05.238Z,9.70
2019-05-10T03:35:04.251Z,9.70
2019-05-10T03:36:04.360Z,9.70
2019-05-10T03:37:04.516Z,9.70
2019-05-10T03:38:05.227Z,9.70
2019-05-10T03:39:04.552Z,9.70
2019-05-10T03:40:04.625Z,9.70
2019-05-10T03:41:04.606Z,9.70
2019-05-10T03:42:04.269Z,9.70
2019-05-10T03:43:04.778Z,9.70
2019-05-10T03:44:04.346Z,9.70
2019-05-10T03:45:04.548Z,9.70
2019-05-10T03:46:04.222Z,9.70
2019-05-10T03:47:04.739Z,9.70
2019-05-10T03:48:05.117Z,9.70
2019-05-10T03:49:04.444Z,9.70
2019-05-10T03:50:05.054Z,9.70
2019-05-10T03:51:04.862Z,9.70
2019-05-10T03:52:04.974Z,9.70
2019-05-10T03:53:04.650Z,9.70
2019-05-10T03:54:04.940Z,9.70
2019-05-10T03:55:04.186Z,9.70
2019-05-10T03:56:04.337Z,9.80
2019-05-10T03:57:12.702Z,9.80
2019-05-10T03:58:04.328Z,9.80
2019-05-10T03:59:04.928Z,9.80
2019-05-10T04:00:04.986Z,9.80
2019-05-10T04:01:05.125Z,9.80
2019-05-10T04:02:04.906Z,9.80
2019-05-10T04:03:04.233Z,9.80
2019-05-10T04:04:05.564Z,9.80
2019-05-10T04:05:04.239Z,9.80
2019-05-10T04:06:04.704Z,9.80
2019-05-10T04:07:05.248Z,9.80
2019-05-10T04:08:04.323Z,9.80
2019-05-10T04:09:04.665Z,9.80
2019-05-10T04:10:04.387Z,9.80
2019-05-10T04:11:04.563Z,9.80
2019-05-10T04:12:04.697Z,9.90
2019-05-10T04:13:04.983Z,9.90
2019-05-10T04:14:05.115Z,9.90
2019-05-10T04:15:04.237Z,9.90
2019-05-10T04:16:04.671Z,9.90
2019-05-10T04:17:05.160Z,9.90
2019-05-10T04:18:04.751Z,9.90
2019-05-10T04:19:09.958Z,9.90
2019-05-10T04:20:04.338Z,9.90
2019-05-10T04:21:04.336Z,10.00
2019-05-10T04:22:04.823Z,10.00
2019-05-10T04:23:04.787Z,10.00
2019-05-10T04:24:04.928Z,10.00
2019-05-10T04:25:05.369Z,10.00
2019-05-10T04:26:04.974Z,10.00
2019-05-10T04:27:04.586Z,10.00
2019-05-10T04:28:04.897Z,10.00
2019-05-10T04:29:04.919Z,10.00
2019-05-10T04:30:04.479Z,10.00
2019-05-10T04:31:04.720Z,10.00
2019-05-10T04:32:04.312Z,10.00
2019-05-10T04:33:04.509Z,10.00
2019-05-10T04:34:04.644Z,10.00
2019-05-10T04:35:04.532Z,10.00
2019-05-10T04:36:04.858Z,10.10
2019-05-10T04:37:04.464Z,10.10
2019-05-10T04:38:05.007Z,10.10
2019-05-10T04:39:04.266Z,10.10
2019-05-10T04:40:04.420Z,10.10
2019-05-10T04:41:04.935Z,10.10
2019-05-10T04:42:05.144Z,10.10
2019-05-10T04:43:04.545Z,10.10
2019-05-10T04:44:04.568Z,10.10
2019-05-10T04:45:04.665Z,10.10
2019-05-10T04:46:05.026Z,10.10
2019-05-10T04:47:05.081Z,10.10
2019-05-10T04:48:05.075Z,10.20
2019-05-10T04:49:04.644Z,10.20
2019-05-10T04:50:05.186Z,10.20
2019-05-10T04:51:04.279Z,10.20
2019-05-10T04:52:04.378Z,10.20
2019-05-10T04:53:09.486Z,10.20
2019-05-10T04:54:04.871Z,10.30
2019-05-10T04:55:05.149Z,10.30
2019-05-10T04:56:04.532Z,10.30
2019-05-10T04:57:05.044Z,10.30
2019-05-10T04:58:04.293Z,10.30
2019-05-10T04:59:04.221Z,10.30
2019-05-10T05:00:04.396Z,10.30
2019-05-10T05:01:04.368Z,10.40
2019-05-10T05:02:04.870Z,10.40
2019-05-10T05:03:04.610Z,10.40
2019-05-10T05:04:04.797Z,10.40
2019-05-10T05:05:04.419Z,10.40
2019-05-10T05:06:04.985Z,10.40
2019-05-10T05:07:04.959Z,10.50
2019-05-10T05:08:06.338Z,10.50
2019-05-10T05:09:04.498Z,10.50
2019-05-10T05:10:04.796Z,10.50
2019-05-10T05:11:04.366Z,10.50
2019-05-10T05:12:06.428Z,10.50
2019-05-10T05:13:09.639Z,10.60
2019-05-10T05:14:09.174Z,10.60
2019-05-10T05:15:05.200Z,10.60
2019-05-10T05:16:04.235Z,10.60
2019-05-10T05:17:04.779Z,10.60
2019-05-10T05:18:04.320Z,10.60
2019-05-10T05:19:04.395Z,10.60
2019-05-10T05:20:04.608Z,10.70
2019-05-10T05:21:04.759Z,10.70
2019-05-10T05:22:04.486Z,10.70
2019-05-10T05:23:04.522Z,10.70
2019-05-10T05:24:04.213Z,10.70
2019-05-10T05:25:05.005Z,10.70
2019-05-10T05:26:04.385Z,10.70
2019-05-10T05:27:04.964Z,10.80
2019-05-10T05:28:07.751Z,10.80
2019-05-10T05:29:05.059Z,10.80
2019-05-10T05:30:04.242Z,10.80
2019-05-10T05:31:04.750Z,10.80
2019-05-10T05:32:04.195Z,10.80
2019-05-10T05:33:04.635Z,10.80
2019-05-10T05:34:05.161Z,10.80
2019-05-10T05:35:05.055Z,10.90
2019-05-10T05:36:04.621Z,10.90
2019-05-10T05:37:04.549Z,10.90
2019-05-10T05:38:04.760Z,10.90
2019-05-10T05:39:04.668Z,11.00
2019-05-10T05:40:04.810Z,11.00
2019-05-10T05:41:04.327Z,11.00
2019-05-10T05:42:04.514Z,11.00
2019-05-10T05:43:08.013Z,11.10
2019-05-10T05:44:05.242Z,11.10
2019-05-10T05:45:04.395Z,11.20
2019-05-10T05:46:04.932Z,11.20
2019-05-10T05:47:05.014Z,11.20
2019-05-10T05:48:05.129Z,11.30
2019-05-10T05:49:04.234Z,11.30
2019-05-10T05:50:04.805Z,11.40
2019-05-10T05:51:04.695Z,11.40
2019-05-10T05:52:04.652Z,11.40
2019-05-10T05:53:04.699Z,11.50
2019-05-10T05:54:04.410Z,11.50
2019-05-10T05:55:04.779Z,11.50
2019-05-10T05:56:12.463Z,11.60
2019-05-10T05:57:05.027Z,11.60
2019-05-10T05:58:07.010Z,11.70
2019-05-10T05:59:06.700Z,11.70
2019-05-10T06:00:06.635Z,11.80
2019-05-10T06:01:04.270Z,12.00
2019-05-10T06:02:07.281Z,12.20
2019-05-10T06:03:04.961Z,12.40
2019-05-10T06:04:06.200Z,12.70
2019-05-10T06:05:04.771Z,12.90
2019-05-10T06:06:15.239Z,13.10
2019-05-10T06:07:04.563Z,13.30
2019-05-10T06:08:21.137Z,13.50
2019-05-10T06:09:05.834Z,13.80
2019-05-10T06:10:09.987Z,13.90
2019-05-10T06:11:09.033Z,14.10
2019-05-10T06:12:07.310Z,14.30
2019-05-10T06:13:04.751Z,14.50
2019-05-10T06:14:10.474Z,14.70
2019-05-10T06:15:04.877Z,14.90
2019-05-10T06:16:06.213Z,15.00
2019-05-10T06:17:05.092Z,15.10
2019-05-10T06:18:09.475Z,15.30
2019-05-10T06:19:04.491Z,15.40
2019-05-10T06:20:05.850Z,15.50
2019-05-10T06:21:04.618Z,15.60
2019-05-10T06:22:06.848Z,15.70
2019-05-10T06:23:06.707Z,15.80
2019-05-10T06:24:12.539Z,15.90
2019-05-10T06:25:05.084Z,16.00
2019-05-10T06:26:06.181Z,16.10
2019-05-10T06:27:05.076Z,16.30
2019-05-10T06:28:09.518Z,16.40
2019-05-10T06:29:10.451Z,16.50
2019-05-10T06:30:05.193Z,16.60
2019-05-10T06:31:04.759Z,16.70
2019-05-10T06:32:04.693Z,16.70
2019-05-10T06:33:12.494Z,16.70
2019-05-10T06:34:04.910Z,16.60
2019-05-10T06:35:04.349Z,16.50
2019-05-10T06:36:04.931Z,16.40
2019-05-10T06:37:04.998Z,16.30
2019-05-10T06:38:05.163Z,16.20
2019-05-10T06:39:04.646Z,16.10
2019-05-10T06:40:05.116Z,16.00
2019-05-10T06:41:04.423Z,15.80
2019-05-10T06:42:04.383Z,15.70
2019-05-10T06:43:06.730Z,15.60
2019-05-10T06:44:04.869Z,15.50
2019-05-10T06:45:12.323Z,15.30
2019-05-10T06:46:04.677Z,15.30
2019-05-10T06:47:08.088Z,15.20
2019-05-10T06:48:04.578Z,15.10
2019-05-10T06:49:08.208Z,15.00
2019-05-10T06:50:04.410Z,14.90
2019-05-10T06:51:09.233Z,14.80
2019-05-10T06:52:04.696Z,14.70
2019-05-10T06:53:07.295Z,14.60
2019-05-10T06:54:04.778Z,14.60
2019-05-10T06:55:05.087Z,14.50
2019-05-10T06:56:04.198Z,14.50
2019-05-10T06:57:04.467Z,14.40
2019-05-10T06:58:04.629Z,14.30
2019-05-10T06:59:12.643Z,14.20
2019-05-10T07:00:06.570Z,14.20
2019-05-10T07:01:04.654Z,14.30
2019-05-10T07:02:05.062Z,14.30
2019-05-10T07:03:04.599Z,14.40
2019-05-10T07:04:05.144Z,14.50
2019-05-10T07:05:05.256Z,14.60
2019-05-10T07:06:04.645Z,14.70
2019-05-10T07:07:09.679Z,14.90
2019-05-10T07:08:13.064Z,15.00
2019-05-10T07:09:05.053Z,15.20
2019-05-10T07:10:12.880Z,15.30
2019-05-10T07:11:05.052Z,15.50
2019-05-10T07:12:09.220Z,15.60
2019-05-10T07:13:06.581Z,15.60
2019-05-10T07:14:04.493Z,15.80
2019-05-10T07:15:05.426Z,15.80
2019-05-10T07:16:04.469Z,15.90
2019-05-10T07:17:04.805Z,16.00
2019-05-10T07:18:04.817Z,16.10
2019-05-10T07:19:05.165Z,16.10
2019-05-10T07:20:04.343Z,16.20
2019-05-10T07:21:06.546Z,16.20
2019-05-10T07:22:05.199Z,16.10
2019-05-10T07:23:05.952Z,16.10
2019-05-10T07:24:04.478Z,16.00
2019-05-10T07:25:07.159Z,16.00
2019-05-10T07:26:04.677Z,16.00
2019-05-10T07:27:05.770Z,16.00
2019-05-10T07:28:09.200Z,16.00
2019-05-10T07:29:04.644Z,16.00
2019-05-10T07:30:04.491Z,15.90
2019-05-10T07:31:04.674Z,16.00
2019-05-10T07:32:04.673Z,16.00
2019-05-10T07:33:05.081Z,16.00
2019-05-10T07:34:04.641Z,15.90
2019-05-10T07:35:04.327Z,15.90
2019-05-10T07:36:11.636Z,15.80
2019-05-10T07:37:04.594Z,15.80
2019-05-10T07:38:04.803Z,15.70
2019-05-10T07:39:08.224Z,15.60
2019-05-10T07:40:05.199Z,15.50
2019-05-10T07:41:05.227Z,15.40
2019-05-10T07:42:06.449Z,15.30
2019-05-10T07:43:04.624Z,15.20
2019-05-10T07:44:07.629Z,15.10
2019-05-10T07:45:04.903Z,15.00
2019-05-10T07:46:06.854Z,14.90
2019-05-10T07:47:04.472Z,14.80
2019-05-10T07:48:07.942Z,14.80
2019-05-10T07:49:04.511Z,14.70
2019-05-10T07:50:09.536Z,14.60
2019-05-10T07:51:05.051Z,14.50
2019-05-10T07:52:05.038Z,14.50
2019-05-10T07:53:04.378Z,14.40
2019-05-10T07:54:06.327Z,14.40
2019-05-10T07:55:04.969Z,14.30
2019-05-10T07:56:05.933Z,14.30
2019-05-10T07:57:05.069Z,14.20
2019-05-10T07:58:05.257Z,14.20
2019-05-10T07:59:05.180Z,14.20
2019-05-10T08:00:05.973Z,14.10
2019-05-10T08:01:05.035Z,14.10
2019-05-10T08:03:13.002Z,14.00
2019-05-10T08:04:04.222Z,14.00
2019-05-10T08:05:04.772Z,14.00
2019-05-10T08:06:04.396Z,14.00
2019-05-10T08:07:07.434Z,14.00
2019-05-10T08:08:04.962Z,14.00
2019-05-10T08:09:06.923Z,14.00
2019-05-10T08:10:05.231Z,13.90
2019-05-10T08:11:04.550Z,13.90
2019-05-10T08:12:05.202Z,13.90
2019-05-10T08:13:04.208Z,14.00
2019-05-10T08:14:06.393Z,14.00
2019-05-10T08:15:04.309Z,14.10
2019-05-10T08:16:05.271Z,14.30
2019-05-10T08:17:06.191Z,14.40
2019-05-10T08:18:04.431Z,14.50
2019-05-10T08:19:04.451Z,14.60
2019-05-10T08:20:08.838Z,14.60
2019-05-10T08:22:04.590Z,14.70
2019-05-10T08:23:04.385Z,14.80
2019-05-10T08:24:10.939Z,14.80
2019-05-10T08:25:05.218Z,14.80
2019-05-10T08:26:05.130Z,14.80
2019-05-10T08:27:11.136Z,14.70
2019-05-10T08:28:05.479Z,14.70
2019-05-10T08:29:07.479Z,14.70
2019-05-10T08:30:19.937Z,14.70
2019-05-10T08:31:04.556Z,14.60
2019-05-10T08:32:04.835Z,14.60
2019-05-10T08:33:09.257Z,14.60
2019-05-10T08:34:04.603Z,14.70
2019-05-10T08:35:05.507Z,14.70
2019-05-10T08:36:05.396Z,14.80
2019-05-10T08:37:04.303Z,14.90
2019-05-10T08:38:05.045Z,15.00
2019-05-10T08:39:10.210Z,15.10
2019-05-10T08:40:04.316Z,15.20
2019-05-10T08:41:07.965Z,15.30
2019-05-10T08:42:19.702Z,15.30
2019-05-10T08:43:08.375Z,15.50
2019-05-10T08:44:04.977Z,15.50
2019-05-10T08:45:08.602Z,15.60
2019-05-10T08:46:04.781Z,15.70
2019-05-10T08:47:07.512Z,15.80
2019-05-10T08:48:06.783Z,15.90
2019-05-10T08:49:05.049Z,15.90
2019-05-10T08:50:15.744Z,16.00
2019-05-10T08:51:07.442Z,16.00
2019-05-10T08:52:04.335Z,16.00
2019-05-10T08:54:04.799Z,16.10
2019-05-10T08:55:04.855Z,16.20
2019-05-10T08:56:07.475Z,16.20
2019-05-10T08:57:05.468Z,16.20
2019-05-10T08:58:04.541Z,16.30
2019-05-10T08:59:09.279Z,16.30
2019-05-10T09:00:08.657Z,16.40
2019-05-10T09:01:15.823Z,16.50
2019-05-10T09:02:04.456Z,16.50
2019-05-10T09:03:09.240Z,16.60
2019-05-10T09:04:06.912Z,16.60
2019-05-10T09:05:05.110Z,16.70
2019-05-10T09:06:11.203Z,16.70
2019-05-10T09:07:04.350Z,16.70
2019-05-10T09:08:05.717Z,16.80
2019-05-10T09:09:09.387Z,16.80
2019-05-10T09:10:04.920Z,16.90
2019-05-10T09:11:06.867Z,16.90
2019-05-10T09:12:08.861Z,16.90
2019-05-10T09:13:04.550Z,17.00
2019-05-10T09:14:05.030Z,17.00
2019-05-10T09:15:09.348Z,17.10
2019-05-10T09:16:04.816Z,17.20
2019-05-10T09:17:07.207Z,17.20
2019-05-10T09:18:07.442Z,17.20
2019-05-10T09:19:04.226Z,17.20
2019-05-10T09:20:11.836Z,17.10
2019-05-10T09:21:08.706Z,17.10
2019-05-10T09:22:04.428Z,17.00
2019-05-10T09:23:08.483Z,16.90
2019-05-10T09:24:06.487Z,16.90
2019-05-10T09:25:04.387Z,16.90
2019-05-10T09:26:10.084Z,16.90
2019-05-10T09:27:04.987Z,16.90
2019-05-10T09:28:11.384Z,16.90
2019-05-10T09:29:04.366Z,17.00
2019-05-10T09:30:08.008Z,17.00
2019-05-10T09:31:16.853Z,17.00
2019-05-10T09:32:06.534Z,17.00
2019-05-10T09:33:08.379Z,17.00
2019-05-10T09:34:04.750Z,17.10
2019-05-10T09:35:07.383Z,17.10
2019-05-10T09:36:04.929Z,17.10
2019-05-10T09:37:07.908Z,17.20
2019-05-10T09:38:04.447Z,17.20
2019-05-10T09:39:08.988Z,17.20
2019-05-10T09:40:09.708Z,17.20
2019-05-10T09:41:04.634Z,17.30
2019-05-10T09:42:08.728Z,17.30
2019-05-10T09:43:09.456Z,17.30
2019-05-10T09:44:05.215Z,17.40
2019-05-10T09:45:04.378Z,17.50
2019-05-10T09:46:04.944Z,17.60
2019-05-10T09:47:05.243Z,17.60
2019-05-10T09:48:04.850Z,17.60
2019-05-10T09:49:13.818Z,17.70
2019-05-10T09:50:05.095Z,17.70
2019-05-10T09:51:05.319Z,17.70
2019-05-10T09:52:12.354Z,17.70
2019-05-10T09:53:07.236Z,17.60
2019-05-10T09:54:07.403Z,17.60
2019-05-10T09:55:09.976Z,17.60
2019-05-10T09:56:04.485Z,17.50
2019-05-10T09:57:04.537Z,17.50
2019-05-10T09:58:04.875Z,17.40
2019-05-10T09:59:05.041Z,17.40
2019-05-10T10:00:04.285Z,17.30
2019-05-10T10:01:14.558Z,17.30
2019-05-10T10:02:13.744Z,17.20
2019-05-10T10:03:07.415Z,17.20
2019-05-10T10:04:05.138Z,17.10
2019-05-10T10:05:04.209Z,17.10
2019-05-10T10:06:07.267Z,17.00
2019-05-10T10:07:04.631Z,17.00
2019-05-10T10:08:08.966Z,17.00
2019-05-10T10:09:07.255Z,17.00
2019-05-10T10:10:04.443Z,17.00
2019-05-10T10:11:11.343Z,17.00
2019-05-10T10:12:06.795Z,17.00
2019-05-10T10:13:08.295Z,17.00
2019-05-10T10:14:05.048Z,17.00
2019-05-10T10:15:04.735Z,17.10
2019-05-10T10:16:10.017Z,17.10
2019-05-10T10:17:04.363Z,17.10
2019-05-10T10:18:04.902Z,17.10
2019-05-10T10:19:07.013Z,17.00
2019-05-10T10:20:04.778Z,17.00
2019-05-10T10:21:05.265Z,17.00
2019-05-10T10:22:05.425Z,17.00
2019-05-10T10:23:06.984Z,16.90
2019-05-10T10:24:12.046Z,16.90
2019-05-10T10:25:07.157Z,16.90
2019-05-10T10:26:07.158Z,16.90
2019-05-10T10:27:07.274Z,17.00
2019-05-10T10:28:08.092Z,17.00
2019-05-10T10:29:07.115Z,17.00
2019-05-10T10:30:06.432Z,17.00
2019-05-10T10:31:05.494Z,17.00
2019-05-10T10:32:04.873Z,17.10
2019-05-10T10:33:05.602Z,17.10
2019-05-10T10:34:04.544Z,17.10
2019-05-10T10:35:04.213Z,17.10
2019-05-10T10:36:07.379Z,17.10
2019-05-10T10:37:04.415Z,17.10
2019-05-10T10:38:07.447Z,17.10
2019-05-10T10:39:07.228Z,17.10
2019-05-10T10:40:05.951Z,17.10
2019-05-10T10:41:04.455Z,17.10
2019-05-10T10:42:08.600Z,17.00
2019-05-10T10:43:07.153Z,16.90
2019-05-10T10:44:04.849Z,16.90
2019-05-10T10:45:04.721Z,16.80
2019-05-10T10:46:11.818Z,16.80
2019-05-10T10:47:05.247Z,16.70
2019-05-10T10:48:08.326Z,16.70
2019-05-10T10:49:05.477Z,16.60
2019-05-10T10:50:08.859Z,16.60
2019-05-10T10:51:04.751Z,16.50
2019-05-10T10:52:05.523Z,16.40
2019-05-10T10:53:07.270Z,16.30
2019-05-10T10:54:07.107Z,16.20
2019-05-10T10:55:05.509Z,16.10
2019-05-10T10:56:07.370Z,16.00
2019-05-10T10:57:04.393Z,15.90
2019-05-10T10:58:04.483Z,15.90
2019-05-10T10:59:04.273Z,15.80
2019-05-10T11:00:07.371Z,15.80
2019-05-10T11:01:08.310Z,15.70
2019-05-10T11:02:28.659Z,15.70
2019-05-10T11:03:04.173Z,15.70
2019-05-10T11:04:07.985Z,15.60
2019-05-10T11:05:04.243Z,15.60
2019-05-10T11:06:04.714Z,15.70
2019-05-10T11:07:10.197Z,15.70
2019-05-10T11:08:04.766Z,15.80
2019-05-10T11:09:04.888Z,15.90
2019-05-10T11:10:15.186Z,15.90
2019-05-10T11:11:04.690Z,16.00
2019-05-10T11:12:05.201Z,16.10
2019-05-10T11:13:10.835Z,16.20
2019-05-10T11:14:07.045Z,16.30
2019-05-10T11:15:04.947Z,16.40
2019-05-10T11:16:10.546Z,16.50
2019-05-10T11:17:04.948Z,16.50
2019-05-10T11:18:04.975Z,16.60
2019-05-10T11:19:10.989Z,16.60
2019-05-10T11:20:08.367Z,16.60
2019-05-10T11:21:05.018Z,16.60
2019-05-10T11:22:09.395Z,16.60
2019-05-10T11:23:04.568Z,16.50
2019-05-10T11:24:04.678Z,16.50
2019-05-10T11:25:09.368Z,16.50
2019-05-10T11:26:04.510Z,16.50
2019-05-10T11:27:07.113Z,16.40
2019-05-10T11:28:05.044Z,16.30
2019-05-10T11:29:05.246Z,16.30
2019-05-10T11:30:04.899Z,16.20
2019-05-10T11:31:04.781Z,16.10
2019-05-10T11:32:14.610Z,16.10
2019-05-10T11:33:04.696Z,16.00
2019-05-10T11:34:06.144Z,15.90
2019-05-10T11:35:05.465Z,15.90
2019-05-10T11:36:08.528Z,15.80
2019-05-10T11:37:04.711Z,15.80
2019-05-10T11:38:06.513Z,15.80
2019-05-10T11:39:05.907Z,15.70
2019-05-10T11:40:04.861Z,15.70
2019-05-10T11:41:06.980Z,15.70
2019-05-10T11:42:07.073Z,15.70
2019-05-10T11:43:04.454Z,15.70
2019-05-10T11:44:08.759Z,15.70
2019-05-10T11:45:04.292Z,15.70
2019-05-10T11:46:04.427Z,15.70
2019-05-10T11:47:19.378Z,15.70
2019-05-10T11:48:04.248Z,15.70
2019-05-10T11:49:04.806Z,15.60
2019-05-10T11:50:06.429Z,15.60
2019-05-10T11:51:05.571Z,15.60
2019-05-10T11:52:04.593Z,15.60
2019-05-10T11:53:06.747Z,15.60
2019-05-10T11:54:04.561Z,15.60
2019-05-10T11:55:04.732Z,15.60
2019-05-10T11:56:07.731Z,15.50
2019-05-10T11:57:09.598Z,15.50
2019-05-10T11:58:08.584Z,15.50
2019-05-10T11:59:05.808Z,15.50
2019-05-10T12:00:10.764Z,15.50
2019-05-10T12:01:14.601Z,15.50
2019-05-10T12:02:08.984Z,15.50
2019-05-10T12:03:11.124Z,15.50
2019-05-10T12:04:05.020Z,15.50
2019-05-10T12:05:12.001Z,15.40
2019-05-10T12:06:08.905Z,15.40
2019-05-10T12:07:06.604Z,15.40
2019-05-10T12:08:04.923Z,15.40
2019-05-10T12:09:04.837Z,15.30
2019-05-10T12:10:14.402Z,15.30
2019-05-10T12:11:14.018Z,15.30
2019-05-10T12:12:04.595Z,15.30
2019-05-10T12:13:14.741Z,15.30
2019-05-10T12:14:04.881Z,15.40
2019-05-10T12:15:05.058Z,15.40
2019-05-10T12:16:04.299Z,15.50
2019-05-10T12:17:06.167Z,15.60
2019-05-10T12:18:05.340Z,15.60
2019-05-10T12:19:14.824Z,15.60
2019-05-10T12:20:04.274Z,15.70
2019-05-10T12:21:09.480Z,15.70
2019-05-10T12:22:06.037Z,15.70
2019-05-10T12:23:04.635Z,15.70
2019-05-10T12:24:25.798Z,15.70
2019-05-10T12:25:23.146Z,15.80
2019-05-10T12:27:18.329Z,15.80
2019-05-10T12:28:05.210Z,15.90
2019-05-10T12:29:11.809Z,15.90
2019-05-10T12:30:04.531Z,15.90
2019-05-10T12:31:07.453Z,15.90
2019-05-10T12:32:04.584Z,15.90
2019-05-10T12:33:09.126Z,16.00
2019-05-10T12:34:08.787Z,16.00
2019-05-10T12:35:05.231Z,16.10
2019-05-10T12:36:04.207Z,16.10
2019-05-10T12:37:08.197Z,16.10
2019-05-10T12:38:05.169Z,16.10
2019-05-10T12:39:04.515Z,16.20
2019-05-10T12:40:09.748Z,16.20
2019-05-10T12:41:05.475Z,16.20
2019-05-10T12:42:04.377Z,16.20
2019-05-10T12:43:05.111Z,16.20
2019-05-10T12:44:07.351Z,16.20
2019-05-10T12:45:05.279Z,16.20
2019-05-10T12:46:04.582Z,16.20
2019-05-10T12:47:04.705Z,16.10
2019-05-10T12:48:05.351Z,16.10
2019-05-10T12:49:05.056Z,16.10
2019-05-10T12:50:05.141Z,16.10
2019-05-10T12:51:08.453Z,16.00
2019-05-10T12:52:09.038Z,16.00
2019-05-10T12:53:13.624Z,16.00
2019-05-10T12:54:05.230Z,15.90
2019-05-10T12:55:04.353Z,16.00
2019-05-10T12:56:04.882Z,15.90
2019-05-10T12:57:04.679Z,15.90
2019-05-10T12:58:04.782Z,16.00
2019-05-10T12:59:05.019Z,16.00
2019-05-10T13:00:06.625Z,16.00
2019-05-10T13:01:04.963Z,16.00